Time;durP1;ratioP1;P1;durP2;ratioP2;P2;SDS_P1;SDS_P2;PMS_P1;PMS_P2;Temp;Humidity;BMP_temperature;BMP_pressure;BME280_temperature;BME280_humidity;BME280_pressure;Samples;Min_cycle;Max_cycle;Signal;HPM_P1;HPM_P2
2021/04/20 00:00:51;;;;;;;13.50;7.43;;;8.50;99.90;;;;;;5056862;28;20033;-74
2021/04/20 00:03:17;;;;;;;18.73;7.57;;;8.50;99.90;;;;;;5057853;28;20465;-75
2021/04/20 00:05:42;;;;;;;14.57;6.93;;;8.50;99.90;;;;;;5053549;28;20447;-72
2021/04/20 00:08:08;;;;;;;15.70;7.88;;;8.50;99.90;;;;;;5057332;28;20033;-74
2021/04/20 00:10:34;;;;;;;13.40;7.35;;;8.50;99.90;;;;;;5055479;28;20113;-74
2021/04/20 00:12:59;;;;;;;16.00;7.20;;;8.50;99.90;;;;;;5055904;28;20382;-72
2021/04/20 00:15:28;;;;;;;16.08;7.97;;;8.50;99.90;;;;;;5056154;28;20143;-74
2021/04/20 00:17:59;;;;;;;15.70;8.02;;;8.50;99.90;;;;;;5055454;28;20079;-74
2021/04/20 00:20:24;;;;;;;17.25;7.70;;;8.50;99.90;;;;;;5054309;28;20350;-73
2021/04/20 00:22:51;;;;;;;13.73;7.53;;;8.60;99.90;;;;;;5054496;28;20220;-73
2021/04/20 00:25:17;;;;;;;18.67;7.72;;;8.70;99.90;;;;;;5056410;28;20090;-73
2021/04/20 00:27:44;;;;;;;19.13;8.50;;;8.80;99.90;;;;;;5052958;28;20116;-73
2021/04/20 00:30:10;;;;;;;17.33;7.93;;;8.70;99.90;;;;;;5055405;28;20562;-74
2021/04/20 00:32:37;;;;;;;16.48;8.43;;;8.80;99.90;;;;;;5052622;28;20106;-73
2021/04/20 00:35:04;;;;;;;16.67;8.85;;;8.80;99.90;;;;;;5055901;28;20047;-74
2021/04/20 00:37:30;;;;;;;14.43;8.05;;;8.80;99.90;;;;;;5052816;28;20045;-74
2021/04/20 00:39:56;;;;;;;19.75;8.50;;;8.80;99.90;;;;;;5055144;28;20043;-74
2021/04/20 00:42:22;;;;;;;15.43;8.45;;;8.80;99.90;;;;;;5052266;28;20707;-74
2021/04/20 00:44:47;;;;;;;17.77;8.57;;;8.80;99.90;;;;;;5053723;28;20119;-74
2021/04/20 00:47:13;;;;;;;15.20;7.47;;;8.80;99.90;;;;;;5057421;28;20537;-73
2021/04/20 00:49:39;;;;;;;14.32;7.90;;;8.80;99.90;;;;;;5049461;28;20151;-74
2021/04/20 00:52:05;;;;;;;17.15;8.15;;;8.80;99.90;;;;;;5054744;28;20059;-74
2021/04/20 00:54:30;;;;;;;13.95;7.45;;;8.80;99.90;;;;;;5053570;28;20482;-74
2021/04/20 00:56:56;;;;;;;19.15;8.30;;;8.70;99.90;;;;;;5055001;28;20025;-74
2021/04/20 00:59:22;;;;;;;15.82;7.85;;;8.70;99.90;;;;;;5053138;28;20609;-73
2021/04/20 01:01:48;;;;;;;15.27;8.27;;;8.60;99.90;;;;;;5053228;28;20898;-75
2021/04/20 01:04:16;;;;;;;18.02;8.02;;;8.60;99.90;;;;;;5053753;28;20045;-75
2021/04/20 01:06:43;;;;;;;18.60;8.48;;;8.50;99.90;;;;;;5053023;28;20041;-75
2021/04/20 01:09:10;;;;;;;19.25;8.05;;;8.50;99.90;;;;;;5054706;28;20101;-72
2021/04/20 01:11:36;;;;;;;17.52;7.85;;;8.50;99.90;;;;;;5050570;28;20067;-72
2021/04/20 01:14:04;;;;;;;19.80;8.70;;;8.40;99.90;;;;;;5055478;28;20040;-73
2021/04/20 01:16:30;;;;;;;19.65;9.77;;;8.50;99.90;;;;;;5053866;28;20040;-73
2021/04/20 01:18:56;;;;;;;15.15;8.05;;;8.40;99.90;;;;;;5051051;28;20063;-75
2021/04/20 01:21:22;;;;;;;16.08;8.27;;;8.40;99.90;;;;;;5055121;28;20145;-75
2021/04/20 01:23:53;;;;;;;15.75;7.88;;;8.40;99.90;;;;;;5048718;28;20036;-74
2021/04/20 01:26:22;;;;;;;19.10;8.05;;;8.40;99.90;;;;;;5054603;28;20436;-74
2021/04/20 01:28:48;;;;;;;16.10;7.72;;;8.40;99.90;;;;;;5052156;28;20032;-74
2021/04/20 01:31:15;;;;;;;18.83;8.40;;;8.30;99.90;;;;;;5056126;28;20483;-74
2021/04/20 01:33:43;;;;;;;17.75;8.52;;;8.30;99.90;;;;;;5050750;28;20040;-74
2021/04/20 01:36:12;;;;;;;20.35;8.90;;;8.30;99.90;;;;;;5057958;28;20041;-74
2021/04/20 01:38:41;;;;;;;19.67;9.35;;;8.40;99.90;;;;;;5054906;28;20036;-74
2021/04/20 01:41:06;;;;;;;18.23;8.15;;;8.40;99.90;;;;;;5053613;28;20033;-74
2021/04/20 01:43:33;;;;;;;21.35;8.80;;;8.40;99.90;;;;;;5054849;28;20163;-74
2021/04/20 01:45:58;;;;;;;16.85;7.63;;;8.30;99.90;;;;;;5056195;28;20033;-74
2021/04/20 01:48:24;;;;;;;15.07;7.80;;;8.30;99.90;;;;;;5052681;28;20540;-74
2021/04/20 01:50:51;;;;;;;14.93;7.30;;;8.30;99.90;;;;;;5051171;28;20161;-73
2021/04/20 01:53:17;;;;;;;17.48;8.80;;;8.30;99.90;;;;;;5050583;28;20486;-74
2021/04/20 01:55:42;;;;;;;18.83;9.50;;;8.30;99.90;;;;;;5050206;28;20803;-74
2021/04/20 01:58:09;;;;;;;17.23;8.18;;;8.30;99.90;;;;;;5057766;28;20048;-74
2021/04/20 02:00:36;;;;;;;15.65;8.05;;;8.30;99.90;;;;;;5055037;28;20039;-74
2021/04/20 02:03:03;;;;;;;15.30;8.38;;;8.20;99.90;;;;;;5051173;28;20041;-75
2021/04/20 02:05:29;;;;;;;16.95;8.25;;;8.20;99.90;;;;;;5052453;28;20029;-72
2021/04/20 02:07:55;;;;;;;14.77;8.00;;;8.10;99.90;;;;;;5054234;28;20040;-74
2021/04/20 02:10:20;;;;;;;18.42;9.25;;;8.10;99.90;;;;;;5052636;28;20657;-74
2021/04/20 02:12:46;;;;;;;20.83;9.57;;;8.10;99.90;;;;;;5056040;28;20047;-73
2021/04/20 02:15:14;;;;;;;17.13;8.80;;;8.00;99.90;;;;;;5050114;28;20498;-73
2021/04/20 02:17:42;;;;;;;19.27;9.15;;;8.00;99.90;;;;;;5055596;28;20033;-74
2021/04/20 02:20:13;;;;;;;14.95;7.70;;;7.90;99.90;;;;;;5050922;28;20490;-74
2021/04/20 02:22:41;;;;;;;21.73;9.25;;;7.90;99.90;;;;;;5051657;28;20090;-73
2021/04/20 02:25:09;;;;;;;16.85;8.73;;;7.80;99.90;;;;;;5051621;28;20025;-74
2021/04/20 02:27:35;;;;;;;18.83;9.05;;;7.70;99.90;;;;;;5055303;28;20052;-75
2021/04/20 02:30:03;;;;;;;18.25;9.35;;;7.70;99.90;;;;;;5049260;28;20487;-74
2021/04/20 02:32:29;;;;;;;18.40;8.63;;;7.70;99.90;;;;;;5053030;28;20052;-74
2021/04/20 02:34:59;;;;;;;18.10;9.20;;;7.60;99.90;;;;;;5052040;28;20037;-74
2021/04/20 02:37:25;;;;;;;12.40;6.38;;;7.50;99.90;;;;;;5051872;28;20064;-73
2021/04/20 02:39:50;;;;;;;20.63;9.45;;;7.50;99.90;;;;;;5052851;28;20067;-73
2021/04/20 02:42:16;;;;;;;27.23;10.20;;;7.40;99.90;;;;;;5052116;28;20110;-74
2021/04/20 02:44:42;;;;;;;21.15;9.32;;;7.40;99.90;;;;;;5055724;28;20347;-74
2021/04/20 02:47:07;;;;;;;21.00;9.80;;;7.40;99.90;;;;;;5056711;28;20025;-74
2021/04/20 02:49:36;;;;;;;22.83;10.35;;;7.40;99.90;;;;;;5058310;28;20514;-73
2021/04/20 02:52:02;;;;;;;19.20;9.73;;;7.40;99.90;;;;;;5057215;28;20036;-73
2021/04/20 02:54:28;;;;;;;20.38;9.70;;;7.30;99.90;;;;;;5058942;28;20067;-73
2021/04/20 02:56:56;;;;;;;20.55;9.20;;;7.40;99.90;;;;;;5057306;28;20300;-72
2021/04/20 02:59:22;;;;;;;19.40;8.90;;;7.30;99.90;;;;;;5055652;28;20037;-73
2021/04/20 03:01:48;;;;;;;20.83;9.18;;;7.20;99.90;;;;;;5057342;28;20055;-75
2021/04/20 03:04:16;;;;;;;17.63;8.98;;;7.20;99.90;;;;;;5057417;28;20053;-72
2021/04/20 03:06:42;;;;;;;19.42;9.77;;;7.10;99.90;;;;;;5056703;28;20025;-74
2021/04/20 03:09:10;;;;;;;17.25;9.15;;;7.10;99.90;;;;;;5050760;28;20131;-74
2021/04/20 03:11:54;;;;;;;17.27;9.18;;;7.10;99.90;;;;;;5054649;28;20025;-73
2021/04/20 03:14:21;;;;;;;21.17;9.80;;;7.00;99.90;;;;;;5054275;28;20064;-72
2021/04/20 03:16:47;;;;;;;21.50;10.52;;;7.00;99.90;;;;;;5056397;28;20094;-71
2021/04/20 03:19:13;;;;;;;22.27;10.52;;;6.90;99.90;;;;;;5055443;28;20490;-75
2021/04/20 03:21:40;;;;;;;21.63;10.10;;;6.90;99.90;;;;;;5057829;28;20041;-74
2021/04/20 03:24:06;;;;;;;23.80;11.10;;;6.90;99.90;;;;;;5056017;28;20028;-73
2021/04/20 03:26:32;;;;;;;24.95;10.68;;;6.90;99.90;;;;;;5057329;28;20482;-74
2021/04/20 03:29:00;;;;;;;22.20;10.00;;;6.90;99.90;;;;;;5055361;28;20094;-75
2021/04/20 03:31:26;;;;;;;23.35;12.23;;;6.90;99.90;;;;;;5057327;28;20104;-73
2021/04/20 03:34:05;;;;;;;19.55;9.80;;;6.90;99.90;;;;;;5055032;28;20060;-75
2021/04/20 03:36:35;;;;;;;22.50;10.82;;;6.80;99.90;;;;;;5056830;28;20033;-75
2021/04/20 03:39:07;;;;;;;19.07;9.87;;;6.80;99.90;;;;;;5054754;28;20033;-74
2021/04/20 03:41:39;;;;;;;21.88;10.30;;;6.70;99.90;;;;;;5055351;28;20025;-75
2021/04/20 03:44:12;;;;;;;25.15;10.98;;;6.70;99.90;;;;;;5053220;28;20033;-74
2021/04/20 03:46:41;;;;;;;21.77;10.27;;;6.70;99.90;;;;;;5054378;28;20044;-74
2021/04/20 03:49:14;;;;;;;23.87;10.73;;;6.70;99.90;;;;;;5055734;28;20048;-74
2021/04/20 03:51:43;;;;;;;26.80;10.85;;;6.60;99.90;;;;;;5054346;28;20294;-74
2021/04/20 03:54:11;;;;;;;23.65;10.43;;;6.60;99.90;;;;;;5056321;28;20032;-73
2021/04/20 03:56:39;;;;;;;24.85;10.98;;;6.60;99.90;;;;;;5052763;28;20069;-74
2021/04/20 03:59:06;;;;;;;23.23;10.93;;;6.70;99.90;;;;;;5055780;28;20034;-75
2021/04/20 04:01:37;;;;;;;22.42;10.52;;;6.60;99.90;;;;;;5052831;28;20032;-73
2021/04/20 04:04:06;;;;;;;21.77;9.90;;;6.60;99.90;;;;;;5053388;28;20506;-74
2021/04/20 04:06:36;;;;;;;22.15;10.80;;;6.60;99.90;;;;;;5052866;28;20107;-75
2021/04/20 04:09:03;;;;;;;23.17;10.90;;;6.50;99.90;;;;;;5052309;28;20637;-76
2021/04/20 04:11:32;;;;;;;21.33;10.25;;;6.50;99.90;;;;;;5054967;28;20078;-76
2021/04/20 04:14:00;;;;;;;24.30;11.45;;;6.40;99.90;;;;;;5053473;28;20086;-73
2021/04/20 04:16:26;;;;;;;26.23;11.50;;;6.40;99.90;;;;;;5057361;28;20140;-75
2021/04/20 04:18:53;;;;;;;26.73;11.98;;;6.50;99.90;;;;;;5054718;28;20036;-74
2021/04/20 04:21:26;;;;;;;26.80;11.43;;;6.50;99.90;;;;;;5054271;28;20103;-74
2021/04/20 04:23:54;;;;;;;25.80;11.70;;;6.50;99.90;;;;;;5054413;28;20089;-73
2021/04/20 04:26:28;;;;;;;23.42;11.18;;;6.50;99.90;;;;;;5053405;28;20486;-73
2021/04/20 04:28:58;;;;;;;28.55;12.18;;;6.50;99.90;;;;;;5052598;28;20045;-74
2021/04/20 04:31:25;;;;;;;23.67;12.07;;;6.50;99.90;;;;;;5056029;28;20411;-74
2021/04/20 04:33:52;;;;;;;25.00;12.10;;;6.50;99.90;;;;;;5054565;28;20420;-74
2021/04/20 04:36:18;;;;;;;26.75;11.90;;;6.40;99.90;;;;;;5053646;28;20036;-74
2021/04/20 04:38:45;;;;;;;22.30;11.68;;;6.40;99.90;;;;;;5055970;28;20449;-74
2021/04/20 04:41:12;;;;;;;22.63;11.32;;;6.40;99.90;;;;;;5051578;28;20082;-74
2021/04/20 04:43:40;;;;;;;28.20;12.38;;;6.40;99.90;;;;;;5052994;28;20051;-74
2021/04/20 04:46:05;;;;;;;29.95;13.18;;;6.40;99.90;;;;;;5053020;28;20551;-74
2021/04/20 04:48:32;;;;;;;28.10;12.90;;;6.40;99.90;;;;;;5056861;28;20044;-74
2021/04/20 04:51:01;;;;;;;27.02;12.82;;;6.40;99.90;;;;;;5054133;28;20107;-74
2021/04/20 04:53:27;;;;;;;25.15;12.13;;;6.40;99.90;;;;;;5044766;28;20044;-73
2021/04/20 04:55:57;;;;;;;29.90;12.65;;;6.40;99.90;;;;;;5055664;28;20037;-73
2021/04/20 04:58:28;;;;;;;26.48;12.18;;;6.40;99.90;;;;;;5054802;28;20090;-74
2021/04/20 05:01:01;;;;;;;30.38;13.32;;;6.50;99.90;;;;;;5055990;28;20060;-73
2021/04/20 05:03:27;;;;;;;28.55;12.68;;;6.50;99.90;;;;;;5060303;28;20182;-73
2021/04/20 05:05:57;;;;;;;26.95;13.60;;;6.60;99.90;;;;;;5049721;28;20051;-72
2021/04/20 05:08:23;;;;;;;30.83;12.40;;;6.60;99.90;;;;;;5050475;28;20033;-73
2021/04/20 05:10:50;;;;;;;24.45;11.48;;;6.60;99.90;;;;;;5056727;28;20486;-73
2021/04/20 05:13:17;;;;;;;28.58;12.27;;;6.60;99.90;;;;;;5054344;28;20037;-73
2021/04/20 05:15:42;;;;;;;26.60;12.85;;;6.70;99.90;;;;;;5049263;28;20047;-72
2021/04/20 05:18:10;;;;;;;27.88;12.95;;;6.70;99.90;;;;;;5053162;28;20346;-73
2021/04/20 05:20:41;;;;;;;26.92;12.02;;;6.70;99.90;;;;;;5049706;28;20454;-73
2021/04/20 05:23:08;;;;;;;27.80;12.88;;;6.80;99.90;;;;;;5051326;28;20044;-73
2021/04/20 05:25:34;;;;;;;36.10;15.00;;;6.90;99.90;;;;;;5046894;28;20533;-72
2021/04/20 05:28:00;;;;;;;29.65;13.23;;;6.90;99.90;;;;;;5051480;28;20382;-72
2021/04/20 05:30:26;;;;;;;35.15;14.98;;;7.10;99.90;;;;;;5049374;28;20037;-73
2021/04/20 05:32:53;;;;;;;32.22;13.98;;;7.20;99.90;;;;;;5054345;28;20036;-72
2021/04/20 05:35:21;;;;;;;33.65;15.07;;;7.30;99.90;;;;;;5049951;28;20044;-72
2021/04/20 05:37:47;;;;;;;32.53;14.30;;;7.50;99.90;;;;;;5052050;28;20043;-73
2021/04/20 05:40:17;;;;;;;30.48;14.60;;;7.70;99.90;;;;;;5051889;28;20029;-72
2021/04/20 05:42:43;;;;;;;33.23;16.43;;;7.80;99.90;;;;;;5050320;28;20170;-72
2021/04/20 05:45:11;;;;;;;36.33;14.60;;;7.90;99.90;;;;;;5052432;28;20441;-72
2021/04/20 05:47:41;;;;;;;30.25;13.77;;;8.10;99.90;;;;;;5050469;28;20509;-73
2021/04/20 05:50:10;;;;;;;33.25;15.23;;;8.30;99.90;;;;;;5049249;28;20044;-72
2021/04/20 05:52:37;;;;;;;33.00;14.82;;;8.80;99.90;;;;;;5057633;28;20290;-73
2021/04/20 05:55:05;;;;;;;28.55;13.10;;;9.90;99.90;;;;;;5051542;28;20098;-72
2021/04/20 05:57:31;;;;;;;25.02;11.38;;;11.10;99.90;;;;;;5053191;28;20033;-72
2021/04/20 05:59:58;;;;;;;23.33;11.05;;;12.40;99.90;;;;;;5049417;28;20039;-72
2021/04/20 06:02:27;;;;;;;24.10;12.50;;;13.40;99.90;;;;;;5046962;28;20495;-71
2021/04/20 06:04:57;;;;;;;25.23;12.57;;;14.40;99.90;;;;;;5053497;28;20033;-72
2021/04/20 06:07:24;;;;;;;24.17;12.10;;;15.10;99.90;;;;;;5049160;28;20610;-71
2021/04/20 06:09:50;;;;;;;21.33;11.60;;;15.90;99.90;;;;;;5052902;28;20053;-73
2021/04/20 06:12:16;;;;;;;22.90;12.50;;;16.40;99.90;;;;;;5048554;28;20536;-71
2021/04/20 06:14:42;;;;;;;21.95;12.18;;;17.00;99.90;;;;;;5048379;28;20037;-72
2021/04/20 06:17:11;;;;;;;18.65;10.98;;;17.40;99.20;;;;;;5051497;28;20094;-72
2021/04/20 06:19:37;;;;;;;21.83;12.00;;;18.00;94.40;;;;;;5051863;28;20029;-72
2021/04/20 06:22:04;;;;;;;20.40;10.55;;;18.40;91.60;;;;;;5053746;28;20029;-73
2021/04/20 06:24:32;;;;;;;18.33;10.93;;;18.70;90.70;;;;;;5055311;28;20037;-73
2021/04/20 06:26:58;;;;;;;24.17;12.35;;;18.90;87.70;;;;;;5055033;28;20151;-73
2021/04/20 06:29:26;;;;;;;20.90;11.65;;;19.10;85.60;;;;;;5053628;28;20049;-73
2021/04/20 06:31:53;;;;;;;21.63;11.63;;;19.40;78.80;;;;;;5051815;28;20515;-74
2021/04/20 06:34:20;;;;;;;21.50;11.68;;;19.90;74.60;;;;;;5051967;28;20116;-73
2021/04/20 06:36:46;;;;;;;17.42;11.02;;;19.90;70.50;;;;;;5062804;28;20033;-73
2021/04/20 06:39:12;;;;;;;23.75;11.60;;;20.20;71.70;;;;;;5063549;28;20580;-72
2021/04/20 06:41:40;;;;;;;20.40;12.43;;;20.50;70.30;;;;;;5058231;28;20031;-72
2021/04/20 06:44:12;;;;;;;22.40;12.68;;;20.50;68.40;;;;;;5055968;28;20136;-72
2021/04/20 06:46:48;;;;;;;21.23;12.95;;;21.00;67.00;;;;;;5054117;28;20037;-73
2021/04/20 06:49:23;;;;;;;21.65;13.02;;;21.40;62.30;;;;;;5055729;28;20102;-73
2021/04/20 06:51:52;;;;;;;25.45;14.27;;;21.30;61.90;;;;;;5050691;28;20028;-74
2021/04/20 06:54:20;;;;;;;22.02;14.30;;;21.30;61.60;;;;;;5056539;28;20033;-73
2021/04/20 06:56:51;;;;;;;23.52;13.73;;;21.60;59.80;;;;;;5059389;28;20799;-73
2021/04/20 06:59:51;;;;;;;22.30;13.48;;;21.80;59.10;;;;;;5062416;28;20402;-74
2021/04/20 07:02:32;;;;;;;24.35;14.70;;;22.10;58.90;;;;;;5055483;28;20119;-72
2021/04/20 07:04:59;;;;;;;20.48;13.85;;;22.60;56.30;;;;;;5050624;28;20072;-73
2021/04/20 07:07:49;;;;;;;26.58;15.00;;;22.60;56.40;;;;;;5054289;28;20137;-74
2021/04/20 07:10:36;;;;;;;23.48;14.95;;;22.80;54.40;;;;;;5053723;28;20053;-74
2021/04/20 07:13:09;;;;;;;23.02;14.57;;;22.70;53.80;;;;;;5050605;28;20064;-72
2021/04/20 07:15:38;;;;;;;25.15;16.40;;;22.60;54.60;;;;;;5053242;28;20048;-74
2021/04/20 07:18:12;;;;;;;26.85;16.80;;;22.40;55.20;;;;;;5050576;28;20035;-74
2021/04/20 07:21:05;;;;;;;25.73;16.27;;;22.00;55.40;;;;;;5050781;28;20041;-72
2021/04/20 07:24:12;;;;;;;33.22;16.77;;;22.20;54.20;;;;;;5055628;28;20063;-73
2021/04/20 07:27:02;;;;;;;25.15;16.35;;;21.30;55.90;;;;;;5009155;28;20526;-73
2021/04/20 07:29:40;;;;;;;28.30;15.32;;;21.00;57.00;;;;;;5050715;28;20705;-72
2021/04/20 07:32:21;;;;;;;22.98;14.50;;;20.70;57.60;;;;;;5053984;28;20044;-72
2021/04/20 07:35:16;;;;;;;25.20;13.48;;;20.40;58.00;;;;;;5051605;28;20406;-72
2021/04/20 07:37:45;;;;;;;23.70;12.48;;;19.60;60.50;;;;;;5050424;28;20025;-71
2021/04/20 07:40:15;;;;;;;22.60;13.05;;;18.60;63.90;;;;;;5054244;28;20121;-74
2021/04/20 07:43:13;;;;;;;26.67;14.95;;;18.20;65.50;;;;;;5051102;28;20036;-72
2021/04/20 07:46:06;;;;;;;24.33;13.40;;;17.80;69.40;;;;;;5052170;28;20518;-72
2021/04/20 07:48:55;;;;;;;30.83;14.68;;;17.80;71.00;;;;;;5050641;28;20037;-72
2021/04/20 07:51:27;;;;;;;25.92;14.07;;;17.60;69.90;;;;;;5053213;28;20040;-72
2021/04/20 07:54:05;;;;;;;25.38;13.13;;;17.40;74.20;;;;;;5051287;28;20032;-72
2021/04/20 07:56:33;;;;;;;26.42;13.00;;;17.50;73.90;;;;;;5050709;28;20029;-71
2021/04/20 07:59:08;;;;;;;29.52;13.98;;;17.40;72.00;;;;;;5051539;28;20037;-72
2021/04/20 08:01:52;;;;;;;30.50;14.50;;;17.20;78.60;;;;;;5050812;28;20389;-73
2021/04/20 08:04:47;;;;;;;24.67;13.73;;;17.20;80.40;;;;;;5052356;28;20094;-72
2021/04/20 08:07:32;;;;;;;27.35;13.38;;;17.20;77.30;;;;;;5050994;28;20029;-73
2021/04/20 08:10:01;;;;;;;23.25;12.30;;;17.30;75.50;;;;;;5052311;28;20090;-72
2021/04/20 08:12:32;;;;;;;25.40;13.07;;;17.30;75.60;;;;;;5048999;28;20118;-72
2021/04/20 08:15:13;;;;;;;29.88;13.73;;;17.00;77.10;;;;;;5052633;28;20031;-73
2021/04/20 08:18:12;;;;;;;27.13;13.50;;;17.00;80.80;;;;;;5050593;28;20127;-73
2021/04/20 08:20:39;;;;;;;29.35;13.00;;;17.00;83.10;;;;;;5044035;28;20044;-73
2021/04/20 08:23:07;;;;;;;22.58;12.05;;;17.00;85.00;;;;;;5053429;28;20048;-72
2021/04/20 08:25:50;;;;;;;28.58;14.60;;;17.20;82.10;;;;;;5050786;28;20568;-72
2021/04/20 08:28:25;;;;;;;24.33;12.70;;;17.30;84.30;;;;;;5050040;28;20044;-73
2021/04/20 08:31:01;;;;;;;28.73;13.52;;;17.40;84.30;;;;;;5051829;28;20223;-75
2021/04/20 08:33:33;;;;;;;25.92;12.60;;;17.40;83.50;;;;;;5050181;28;20037;-75
2021/04/20 08:36:34;;;;;;;22.98;11.95;;;17.50;84.40;;;;;;5051237;28;20048;-74
2021/04/20 08:39:20;;;;;;;24.90;12.35;;;17.70;83.00;;;;;;5045426;28;20116;-73
2021/04/20 08:42:06;;;;;;;25.35;13.02;;;17.80;78.90;;;;;;5044071;28;20401;-74
2021/04/20 08:44:45;;;;;;;24.80;12.88;;;17.90;78.50;;;;;;5051810;28;20043;-72
2021/04/20 08:47:28;;;;;;;19.30;10.05;;;18.00;78.80;;;;;;5052855;28;20044;-74
2021/04/20 08:50:06;;;;;;;20.08;10.20;;;17.90;71.20;;;;;;5046768;28;20217;-73
2021/04/20 08:52:38;;;;;;;22.70;11.00;;;17.90;69.20;;;;;;5052821;28;20029;-73
2021/04/20 08:55:46;;;;;;;21.85;10.75;;;17.90;73.70;;;;;;5054727;28;20044;-72
2021/04/20 08:58:39;;;;;;;19.65;10.02;;;17.90;71.30;;;;;;4971800;28;20957;-74
2021/04/20 09:01:33;;;;;;;22.60;11.00;;;17.90;74.70;;;;;;4971744;28;20244;-72
2021/04/20 09:04:20;;;;;;;20.08;9.43;;;18.10;68.30;;;;;;5040939;28;20490;-72
2021/04/20 09:06:50;;;;;;;18.95;9.38;;;18.10;70.30;;;;;;5052382;28;20410;-72
2021/04/20 09:09:19;;;;;;;18.90;9.57;;;18.20;63.80;;;;;;5050673;28;20036;-73
2021/04/20 09:11:47;;;;;;;18.10;8.55;;;18.30;63.30;;;;;;5054585;28;20036;-73
2021/04/20 09:14:25;;;;;;;16.02;8.98;;;18.20;63.00;;;;;;5047628;28;20555;-72
2021/04/20 09:17:00;;;;;;;17.50;9.57;;;18.20;64.60;;;;;;5050979;28;20135;-72
2021/04/20 09:19:37;;;;;;;18.13;9.35;;;18.30;66.70;;;;;;5051993;28;20032;-74
2021/04/20 09:22:25;;;;;;;16.58;8.00;;;18.40;65.80;;;;;;5049117;28;20032;-73
2021/04/20 09:25:16;;;;;;;19.58;8.93;;;18.40;65.70;;;;;;5052464;28;20473;-72
2021/04/20 09:28:07;;;;;;;17.88;8.43;;;18.50;63.70;;;;;;5050182;28;20040;-75
2021/04/20 09:30:57;;;;;;;18.52;9.52;;;18.40;65.80;;;;;;5051727;28;20041;-72
2021/04/20 09:33:47;;;;;;;16.40;9.52;;;18.60;64.10;;;;;;5050745;28;20044;-72
2021/04/20 09:36:14;;;;;;;17.83;9.05;;;18.80;63.50;;;;;;5063433;22;20065;-67
2021/04/20 09:38:45;;;;;;;18.85;9.52;;;18.70;60.30;;;;;;5041598;28;20158;-67
2021/04/20 09:41:13;;;;;;;20.50;8.77;;;18.60;60.80;;;;;;5035340;28;20030;-67
2021/04/20 09:44:17;;;;;;;18.88;8.82;;;18.60;62.00;;;;;;5041491;28;20029;-66
2021/04/20 09:46:58;;;;;;;10.75;5.75;;;18.50;59.40;;;;;;5039195;28;20044;-68
2021/04/20 09:49:32;;;;;;;9.95;5.43;;;18.50;62.60;;;;;;5040162;28;20044;-67
2021/04/20 09:52:09;;;;;;;9.23;5.28;;;18.70;59.00;;;;;;5025003;28;20523;-67
2021/04/20 09:55:06;;;;;;;12.15;6.10;;;18.80;57.60;;;;;;5042053;28;20032;-65
2021/04/20 09:57:35;;;;;;;10.32;4.63;;;19.00;59.20;;;;;;5018639;28;20040;-67
2021/04/20 10:00:06;;;;;;;9.68;5.18;;;19.10;55.80;;;;;;5044762;28;20037;-67
2021/04/20 10:02:47;;;;;;;;;;;19.20;56.10;;;;;;5049250;28;20037;-66
2021/04/20 10:05:34;;;;;;;10.10;5.28;;;19.30;53.10;;;;;;5024600;28;19916;-67
2021/04/20 10:08:27;;;;;;;12.50;6.30;;;19.50;52.70;;;;;;5043917;28;20051;-66
2021/04/20 10:10:59;;;;;;;9.23;5.28;;;19.30;54.80;;;;;;5046113;28;20501;-67
2021/04/20 10:13:43;;;;;;;13.38;7.25;;;19.40;57.10;;;;;;5047965;28;20052;-67
2021/04/20 10:16:23;;;;;;;11.45;6.72;;;19.70;55.50;;;;;;5054111;28;20037;-66
2021/04/20 10:19:15;;;;;;;13.65;6.60;;;19.70;55.60;;;;;;5048017;28;20033;-67
2021/04/20 10:22:11;;;;;;;9.13;5.45;;;19.90;55.20;;;;;;5039566;28;20786;-67
2021/04/20 10:24:43;;;;;;;11.57;5.45;;;20.10;56.20;;;;;;5042024;28;20040;-67
2021/04/20 10:27:12;;;;;;;11.07;5.68;;;20.30;55.00;;;;;;5042141;28;20120;-67
2021/04/20 10:29:50;;;;;;;12.30;6.28;;;20.40;52.30;;;;;;5022811;28;20414;-66
2021/04/20 10:32:22;;;;;;;14.13;5.68;;;20.30;51.20;;;;;;5040057;28;20041;-67
2021/04/20 10:34:53;;;;;;;9.82;5.68;;;20.50;52.60;;;;;;5041546;28;20037;-65
2021/04/20 10:37:28;;;;;;;10.75;5.40;;;20.70;49.50;;;;;;5043660;28;20165;-66
2021/04/20 10:39:55;;;;;;;9.45;4.63;;;20.80;49.60;;;;;;5044813;28;20036;-65
2021/04/20 10:42:31;;;;;;;7.60;4.03;;;20.80;49.10;;;;;;5042394;28;21480;-67
2021/04/20 10:44:58;;;;;;;6.97;3.65;;;21.00;48.10;;;;;;5051071;28;20195;-66
2021/04/20 10:47:25;;;;;;;8.80;3.78;;;21.00;49.00;;;;;;5053995;28;20044;-66
2021/04/20 10:49:52;;;;;;;6.90;4.20;;;21.20;46.90;;;;;;5057283;28;20040;-65
2021/04/20 10:52:19;;;;;;;9.30;4.50;;;21.00;47.90;;;;;;5059183;28;20044;-66
2021/04/20 10:54:46;;;;;;;8.73;3.90;;;20.90;48.70;;;;;;5050808;28;20031;-66
2021/04/20 10:57:12;;;;;;;9.35;4.55;;;21.20;47.60;;;;;;5050593;28;20048;-66
2021/04/20 10:59:41;;;;;;;8.70;4.80;;;21.20;49.10;;;;;;5029887;28;20091;-66
2021/04/20 11:02:19;;;;;;;8.45;4.00;;;21.30;48.00;;;;;;5027940;28;20053;-66
2021/04/20 11:04:47;;;;;;;8.30;4.15;;;21.20;46.90;;;;;;5047041;28;20033;-67
2021/04/20 11:07:26;;;;;;;8.25;3.75;;;21.10;48.80;;;;;;5034781;28;20025;-66
2021/04/20 11:10:00;;;;;;;6.20;3.33;;;21.10;46.00;;;;;;5032863;28;20508;-66
2021/04/20 11:12:27;;;;;;;8.80;3.80;;;21.00;45.80;;;;;;5033047;28;20041;-66
2021/04/20 11:14:54;;;;;;;8.77;4.40;;;21.10;47.60;;;;;;5050482;28;20040;-66
2021/04/20 11:17:24;;;;;;;7.95;3.70;;;21.20;48.30;;;;;;5051325;28;20036;-66
2021/04/20 11:19:52;;;;;;;;;;;21.30;47.10;;;;;;5051854;28;20041;-66
2021/04/20 11:22:19;;;;;;;7.13;3.92;;;21.30;47.50;;;;;;5034771;28;20368;-66
2021/04/20 11:24:51;;;;;;;8.38;3.97;;;21.40;45.60;;;;;;5052220;28;20478;-66
2021/04/20 11:27:22;;;;;;;7.75;4.50;;;21.50;46.20;;;;;;5030317;28;20041;-67
2021/04/20 11:30:14;;;;;;;6.82;4.28;;;21.60;47.10;;;;;;5028963;28;20072;-68
2021/04/20 11:32:50;;;;;;;5.55;3.33;;;21.60;45.70;;;;;;5027796;28;20090;-68
2021/04/20 11:35:22;;;;;;;8.82;4.07;;;21.30;46.90;;;;;;5042508;28;20402;-68
2021/04/20 11:37:49;;;;;;;7.75;3.88;;;21.30;48.00;;;;;;5045708;28;20540;-68
2021/04/20 11:40:40;;;;;;;8.85;4.55;;;21.50;47.90;;;;;;5043793;28;20063;-67
2021/04/20 11:43:12;;;;;;;5.95;3.78;;;21.60;47.50;;;;;;5042850;28;20037;-68
2021/04/20 11:45:40;;;;;;;8.95;4.40;;;21.60;46.20;;;;;;5041919;28;20041;-67
2021/04/20 11:48:20;;;;;;;8.25;4.68;;;21.50;45.40;;;;;;5040612;28;20033;-68
2021/04/20 11:50:54;;;;;;;13.20;5.82;;;21.00;46.40;;;;;;5042111;28;20033;-67
2021/04/20 11:53:21;;;;;;;9.07;4.35;;;20.70;47.10;;;;;;5043609;28;20025;-66
2021/04/20 11:55:49;;;;;;;12.13;6.18;;;20.50;48.30;;;;;;5046427;28;20037;-66
2021/04/20 11:58:33;;;;;;;10.98;6.00;;;20.40;49.30;;;;;;5045000;28;20037;-67
2021/04/20 12:01:14;;;;;;;14.07;6.28;;;20.20;49.70;;;;;;5027651;28;20351;-67
2021/04/20 12:03:50;;;;;;;;;;;20.20;49.80;;;;;;5043578;28;20379;-67
2021/04/20 12:06:15;;;;;;;14.35;5.53;;;19.90;49.60;;;;;;5045694;28;19917;-68
2021/04/20 12:08:45;;;;;;;11.48;5.95;;;19.70;50.50;;;;;;5046199;28;20041;-66
2021/04/20 12:11:12;;;;;;;11.52;6.22;;;19.60;51.00;;;;;;5046043;28;20036;-66
2021/04/20 12:13:44;;;;;;;14.95;5.00;;;19.60;51.00;;;;;;5046745;28;20025;-67
2021/04/20 12:16:11;;;;;;;8.68;5.22;;;19.40;51.80;;;;;;5045513;28;20102;-67
2021/04/20 12:18:38;;;;;;;13.07;6.25;;;19.40;51.00;;;;;;5027311;28;20091;-67
2021/04/20 12:21:09;;;;;;;9.90;5.40;;;19.20;51.30;;;;;;5045603;28;20033;-66
2021/04/20 12:23:39;;;;;;;11.45;5.93;;;19.20;52.20;;;;;;5042926;28;20039;-67
2021/04/20 12:26:06;;;;;;;11.60;5.27;;;19.10;52.70;;;;;;5041364;28;20073;-67
2021/04/20 12:28:37;;;;;;;9.45;5.03;;;19.10;52.20;;;;;;5040548;28;20482;-67
2021/04/20 12:31:03;;;;;;;19.75;5.70;;;19.20;51.40;;;;;;5044765;28;20422;-66
2021/04/20 12:33:31;;;;;;;9.85;5.88;;;19.20;51.10;;;;;;5044395;28;20036;-66
2021/04/20 12:36:01;;;;;;;10.20;5.47;;;19.30;51.70;;;;;;5045356;28;20033;-67
2021/04/20 12:38:33;;;;;;;11.88;5.00;;;19.40;52.00;;;;;;5045429;28;20048;-67
2021/04/20 12:41:03;;;;;;;10.48;5.32;;;19.30;51.70;;;;;;5027058;28;20029;-67
2021/04/20 12:43:33;;;;;;;11.13;5.13;;;19.30;52.00;;;;;;5045531;28;20033;-66
2021/04/20 12:46:09;;;;;;;11.02;5.88;;;19.20;50.50;;;;;;5045870;28;20039;-67
2021/04/20 12:48:38;;;;;;;11.05;5.63;;;18.90;51.40;;;;;;5041747;28;20025;-66
2021/04/20 12:51:05;;;;;;;10.00;5.35;;;18.80;52.00;;;;;;5043617;28;20036;-67
2021/04/20 12:53:33;;;;;;;10.93;5.45;;;18.80;52.80;;;;;;5041120;28;20194;-66
2021/04/20 12:56:01;;;;;;;9.73;5.10;;;18.90;52.70;;;;;;5044665;28;20033;-66
2021/04/20 12:58:32;;;;;;;9.32;5.28;;;19.00;52.50;;;;;;5044676;28;20033;-67
2021/04/20 13:01:06;;;;;;;7.85;4.53;;;19.00;53.10;;;;;;5027425;28;20029;-67